Mohnton, Pennsylvania
Current Conditions -  °F | °C
As of 5:54 AM on Thursday 23 Oct 2014 (Local Time) from KRDG Reporting Station
Overcast Overcast  
Wind Chill: 52°   Ceiling: 2700
Heat Index: 52°   Visibility: 10mi
Dew Point: 43°   Wind: 14mph
Humidity: 71%   Direction: 330°NNW
Pressure: 29.82"   Gusts: NA
Location:  40.29°N, 75.98°W
Report Text: KRDG 230954Z 33012KT 10SM BKN027 BKN032 OVC040 11/06 A2982 RMK AO2 RAE31 SLP104 P0000 T01110061
Loading
Personal Weather Stations






























Interactive Weather Map
Tropical Storm Tracking
New forecast layout! Learn more

10-Day Weather Forecast

Advertisements
Track Severe Weather on mobile